METAR Data
IDs: Format: Raw Decoded Include TAF

Data at: 2014 UTC 17 Nov 2019

PGSN 171954Z 08009KT 10SM SCT031 SCT065 BKN100 24/24 A2988 RMK AO2 RAE03 SLP139 P0000 T02440244 $